createdAt,value
2018-11-26T00:00:15.490Z,11.48
2018-11-26T00:02:43.711Z,10.95
2018-11-26T00:05:11.956Z,11.27
2018-11-26T00:07:40.211Z,11.20
2018-11-26T00:10:19.680Z,12.00
2018-11-26T00:12:47.893Z,11.33
2018-11-26T00:15:16.087Z,11.30
2018-11-26T00:17:44.299Z,10.00
2018-11-26T00:20:12.487Z,13.18
2018-11-26T00:22:40.710Z,11.25
2018-11-26T00:25:08.966Z,10.95
2018-11-26T00:27:37.223Z,10.48
2018-11-26T00:30:06.610Z,11.28
2018-11-26T00:32:34.824Z,10.50
2018-11-26T00:35:03.019Z,10.68
2018-11-26T00:37:31.202Z,10.20
2018-11-26T00:39:59.410Z,9.50
2018-11-26T00:42:27.659Z,10.10
2018-11-26T00:44:55.871Z,10.80
2018-11-26T00:47:24.126Z,10.50
2018-11-26T00:49:52.327Z,11.95
2018-11-26T00:52:20.535Z,11.40
2018-11-26T00:54:48.778Z,10.40
2018-11-26T00:57:16.956Z,12.03
2018-11-26T00:59:45.221Z,12.77
2018-11-26T01:02:13.433Z,12.03
2018-11-26T01:04:41.703Z,12.27
2018-11-26T01:07:09.957Z,11.97
2018-11-26T01:09:38.214Z,12.28
2018-11-26T01:12:06.423Z,13.10
2018-11-26T01:14:34.705Z,13.63
2018-11-26T01:17:02.915Z,11.80
2018-11-26T01:19:31.137Z,12.60
2018-11-26T01:21:59.367Z,14.03
2018-11-26T01:24:27.577Z,13.13
2018-11-26T01:26:55.775Z,13.97
2018-11-26T01:29:24.010Z,12.28
2018-11-26T01:31:52.267Z,12.78
2018-11-26T01:34:20.483Z,13.38
2018-11-26T01:36:48.668Z,13.10
2018-11-26T01:39:17.571Z,12.75
2018-11-26T01:41:45.784Z,12.20
2018-11-26T01:44:13.996Z,14.00
2018-11-26T01:46:42.243Z,12.70
2018-11-26T01:49:10.460Z,12.27
2018-11-26T01:51:38.702Z,13.32
2018-11-26T01:54:07.284Z,12.73
2018-11-26T01:56:35.495Z,11.57
2018-11-26T01:59:03.734Z,11.68
2018-11-26T02:01:31.924Z,12.35
2018-11-26T02:04:00.133Z,13.63
2018-11-26T02:06:29.072Z,15.63
2018-11-26T02:08:57.279Z,13.00
2018-11-26T02:11:25.521Z,15.00
2018-11-26T02:13:53.741Z,14.68
2018-11-26T02:16:21.974Z,12.65
2018-11-26T02:18:50.155Z,14.30
2018-11-26T02:21:18.358Z,13.62
2018-11-26T02:23:46.571Z,13.72
2018-11-26T02:26:14.767Z,11.93
2018-11-26T02:28:42.961Z,11.75
2018-11-26T02:31:11.139Z,11.22
2018-11-26T02:33:39.343Z,11.33
2018-11-26T02:36:07.534Z,11.50
2018-11-26T02:38:35.728Z,10.18
2018-11-26T02:41:03.935Z,10.73
2018-11-26T02:43:32.235Z,9.20
2018-11-26T02:46:00.414Z,9.83
2018-11-26T02:48:28.609Z,10.63
2018-11-26T02:50:56.795Z,8.88
2018-11-26T02:53:24.971Z,9.38
2018-11-26T02:55:53.471Z,9.45
2018-11-26T02:58:21.651Z,10.10
2018-11-26T03:00:49.840Z,9.45
2018-11-26T03:03:18.019Z,9.50
2018-11-26T03:05:46.221Z,8.65
2018-11-26T03:08:14.458Z,10.18
2018-11-26T03:10:42.687Z,8.20
2018-11-26T03:13:10.866Z,9.08
2018-11-26T03:15:39.100Z,8.23
2018-11-26T03:18:07.291Z,7.80
2018-11-26T03:20:35.487Z,8.00
2018-11-26T03:23:03.655Z,8.53
2018-11-26T03:25:31.856Z,7.95
2018-11-26T03:28:00.045Z,6.80
2018-11-26T03:30:28.254Z,8.20
2018-11-26T03:32:56.448Z,8.50
2018-11-26T03:35:24.649Z,7.53
2018-11-26T03:37:52.847Z,6.70
2018-11-26T03:40:21.056Z,7.35
2018-11-26T03:42:49.251Z,6.92
2018-11-26T03:45:18.275Z,6.95
2018-11-26T03:47:46.487Z,8.35
2018-11-26T03:50:14.792Z,7.62
2018-11-26T03:52:43.911Z,8.45
2018-11-26T03:55:12.437Z,7.35
2018-11-26T03:57:40.656Z,8.00
2018-11-26T04:00:10.492Z,6.92
2018-11-26T04:02:38.688Z,6.83
2018-11-26T04:05:07.731Z,6.78
2018-11-26T04:07:35.938Z,7.72
2018-11-26T04:10:05.005Z,8.73
2018-11-26T04:12:33.206Z,9.55
2018-11-26T04:15:01.447Z,10.10
2018-11-26T04:17:29.651Z,8.38
2018-11-26T04:19:57.865Z,6.92
2018-11-26T04:22:26.055Z,7.45
2018-11-26T04:24:54.300Z,8.75
2018-11-26T04:27:22.503Z,7.78
2018-11-26T04:29:50.708Z,8.08
2018-11-26T04:32:18.906Z,7.85
2018-11-26T04:34:47.152Z,7.95
2018-11-26T04:37:15.335Z,8.03
2018-11-26T04:39:43.533Z,7.72
2018-11-26T04:42:11.744Z,7.87
2018-11-26T04:44:39.932Z,9.05
2018-11-26T04:47:08.128Z,9.38
2018-11-26T04:49:36.324Z,10.00
2018-11-26T04:52:04.687Z,9.50
2018-11-26T04:54:32.882Z,8.18
2018-11-26T04:57:01.089Z,8.20
2018-11-26T04:59:29.302Z,8.98
2018-11-26T05:01:57.499Z,8.85
2018-11-26T05:04:25.740Z,8.28
2018-11-26T05:06:53.942Z,8.38
2018-11-26T05:09:22.127Z,8.68
2018-11-26T05:11:50.347Z,8.13
2018-11-26T05:14:18.541Z,8.50
2018-11-26T05:16:46.744Z,8.43
2018-11-26T05:19:14.943Z,8.78
2018-11-26T05:21:43.165Z,8.85
2018-11-26T05:24:11.375Z,7.33
2018-11-26T05:26:39.567Z,7.40
2018-11-26T05:29:07.775Z,6.87
2018-11-26T05:31:35.980Z,7.00
2018-11-26T05:34:04.184Z,5.78
2018-11-26T05:36:32.371Z,6.42
2018-11-26T05:39:00.572Z,6.72
2018-11-26T05:41:28.772Z,7.20
2018-11-26T05:43:56.983Z,6.37
2018-11-26T05:46:25.188Z,6.12
2018-11-26T05:48:53.387Z,6.85
2018-11-26T05:51:21.589Z,6.42
2018-11-26T05:53:49.799Z,7.42
2018-11-26T05:56:18.003Z,7.65
2018-11-26T05:58:46.207Z,7.22
2018-11-26T06:01:14.422Z,7.60
2018-11-26T06:03:42.636Z,6.72
2018-11-26T06:06:10.827Z,7.42
2018-11-26T06:08:39.031Z,6.75
2018-11-26T06:11:07.223Z,7.40
2018-11-26T06:13:35.422Z,6.95
2018-11-26T06:16:03.612Z,5.95
2018-11-26T06:18:31.823Z,6.57
2018-11-26T06:21:00.030Z,6.30
2018-11-26T06:23:28.233Z,5.75
2018-11-26T06:25:56.424Z,5.60
2018-11-26T06:28:24.642Z,6.85
2018-11-26T06:30:52.842Z,5.85
2018-11-26T06:33:21.040Z,5.55
2018-11-26T06:35:49.232Z,6.20
2018-11-26T06:38:17.427Z,4.90
2018-11-26T06:40:45.624Z,5.15
2018-11-26T06:43:13.887Z,5.92
2018-11-26T06:45:42.114Z,4.85
2018-11-26T06:48:10.331Z,4.78
2018-11-26T06:50:38.534Z,6.00
2018-11-26T06:53:07.119Z,5.40
2018-11-26T06:55:35.342Z,5.50
2018-11-26T06:58:03.554Z,4.72
2018-11-26T07:00:31.811Z,5.50
2018-11-26T07:03:00.015Z,4.50
2018-11-26T07:05:28.216Z,4.08
2018-11-26T07:07:56.421Z,5.30
2018-11-26T07:10:24.618Z,3.60
2018-11-26T07:12:52.791Z,3.85
2018-11-26T07:15:21.971Z,5.10
2018-11-26T07:17:50.927Z,4.37
2018-11-26T07:20:20.057Z,5.12
2018-11-26T07:22:48.251Z,4.83
2018-11-26T07:25:18.763Z,4.85
2018-11-26T07:27:48.371Z,4.80
2018-11-26T07:30:19.633Z,6.05
2018-11-26T07:32:47.827Z,5.10
2018-11-26T07:35:16.327Z,5.83
2018-11-26T07:37:44.523Z,5.62
2018-11-26T07:40:16.701Z,5.60
2018-11-26T07:42:49.564Z,5.28
2018-11-26T07:45:17.745Z,6.35
2018-11-26T07:47:45.952Z,5.50
2018-11-26T07:50:15.224Z,5.72
2018-11-26T07:52:43.399Z,6.10
2018-11-26T07:55:14.596Z,6.10
2018-11-26T07:57:42.816Z,6.78
2018-11-26T08:00:13.148Z,7.40
2018-11-26T08:02:41.517Z,7.78
2018-11-26T08:05:11.121Z,8.35
2018-11-26T08:07:39.468Z,8.93
2018-11-26T08:10:10.888Z,7.80
2018-11-26T08:12:39.115Z,9.05
2018-11-26T08:15:10.321Z,9.48
2018-11-26T08:17:38.669Z,9.33
2018-11-26T08:20:07.994Z,9.68
2018-11-26T08:22:36.247Z,8.40
2018-11-26T08:25:06.178Z,8.30
2018-11-26T08:27:34.388Z,8.90
2018-11-26T08:30:02.639Z,8.38
2018-11-26T08:32:34.194Z,9.00
2018-11-26T08:34:59.089Z,8.38
2018-11-26T08:37:33.339Z,8.60
2018-11-26T08:40:07.055Z,8.33
2018-11-26T08:42:40.996Z,8.53
2018-11-26T08:45:16.573Z,8.63
2018-11-26T08:47:49.067Z,8.70
2018-11-26T08:50:17.290Z,8.10
2018-11-26T08:52:45.520Z,8.10
2018-11-26T08:55:13.724Z,8.63
2018-11-26T08:57:41.956Z,9.03
2018-11-26T09:00:11.145Z,7.67
2018-11-26T09:02:48.119Z,7.80
2018-11-26T09:05:24.162Z,7.87
2018-11-26T09:07:50.973Z,7.33
2018-11-26T09:10:19.236Z,6.13
2018-11-26T09:12:47.452Z,6.60
2018-11-26T09:15:15.659Z,6.05
2018-11-26T09:17:43.865Z,5.55
2018-11-26T09:20:12.099Z,5.90
2018-11-26T09:22:40.310Z,5.90
2018-11-26T09:25:10.764Z,5.90
2018-11-26T09:27:39.033Z,5.60
2018-11-26T09:30:11.016Z,5.50
2018-11-26T09:32:39.437Z,5.60
2018-11-26T09:35:09.496Z,5.35
2018-11-26T09:37:37.760Z,5.40
2018-11-26T09:40:07.515Z,6.20
2018-11-26T09:42:35.736Z,5.55
2018-11-26T09:45:04.385Z,5.20
2018-11-26T09:47:32.629Z,6.15
2018-11-26T09:50:00.864Z,6.10
2018-11-26T09:52:29.098Z,6.40
2018-11-26T09:54:57.311Z,6.22
2018-11-26T09:57:25.524Z,6.70
2018-11-26T09:59:53.743Z,7.30
2018-11-26T10:02:21.990Z,7.13
2018-11-26T10:04:50.210Z,7.20
2018-11-26T10:07:18.470Z,6.90
2018-11-26T10:09:46.674Z,8.40
2018-11-26T10:12:14.917Z,8.10
2018-11-26T10:14:43.141Z,8.20
2018-11-26T10:17:11.352Z,7.40
2018-11-26T10:19:39.651Z,8.50
2018-11-26T10:22:07.876Z,8.68
2018-11-26T10:24:36.073Z,8.38
2018-11-26T10:27:04.388Z,7.25
2018-11-26T10:29:32.595Z,8.13
2018-11-26T10:32:00.800Z,7.35
2018-11-26T10:34:29.012Z,7.65
2018-11-26T10:36:57.253Z,8.00
2018-11-26T10:39:25.482Z,6.17
2018-11-26T10:41:53.681Z,5.15
2018-11-26T10:44:21.871Z,4.70
2018-11-26T10:46:50.089Z,5.80
2018-11-26T10:49:18.299Z,5.23
2018-11-26T10:51:46.530Z,4.95
2018-11-26T10:54:14.728Z,4.95
2018-11-26T10:56:42.944Z,5.25
2018-11-26T10:59:11.156Z,4.80
2018-11-26T11:01:43.888Z,4.67
2018-11-26T11:04:12.100Z,4.08
2018-11-26T11:06:40.293Z,4.72
2018-11-26T11:09:09.003Z,3.60
2018-11-26T11:11:37.220Z,3.90
2018-11-26T11:14:05.512Z,3.58
2018-11-26T11:16:33.711Z,4.05
2018-11-26T11:19:01.907Z,3.83
2018-11-26T11:21:30.101Z,4.20
2018-11-26T11:23:58.283Z,3.70
2018-11-26T11:26:28.210Z,4.00
2018-11-26T11:28:55.169Z,3.70
2018-11-26T11:31:23.381Z,3.20
2018-11-26T11:33:51.575Z,3.55
2018-11-26T11:36:19.770Z,3.27
2018-11-26T11:38:48.045Z,3.35
2018-11-26T11:41:16.265Z,3.80
2018-11-26T11:43:44.543Z,2.90
2018-11-26T11:46:12.746Z,3.42
2018-11-26T11:48:40.990Z,3.02
2018-11-26T11:51:09.218Z,3.25
2018-11-26T11:53:37.467Z,2.90
2018-11-26T11:56:06.240Z,3.20
2018-11-26T11:58:34.486Z,2.70
2018-11-26T12:01:02.844Z,2.92
2018-11-26T12:03:31.100Z,2.65
2018-11-26T12:05:59.359Z,2.50
2018-11-26T12:08:27.635Z,3.17
2018-11-26T12:10:55.961Z,2.50
2018-11-26T12:13:27.728Z,2.45
2018-11-26T12:15:56.080Z,2.70
2018-11-26T12:18:24.413Z,2.60
2018-11-26T12:20:53.311Z,2.30
2018-11-26T12:23:21.619Z,2.10
2018-11-26T12:25:50.007Z,2.30
2018-11-26T12:28:18.284Z,2.05
2018-11-26T12:30:46.937Z,1.72
2018-11-26T12:33:15.176Z,1.70
2018-11-26T12:35:43.472Z,1.57
2018-11-26T12:38:11.700Z,1.82
2018-11-26T12:40:39.938Z,1.80
2018-11-26T12:43:08.206Z,1.80
2018-11-26T12:45:36.458Z,1.80
2018-11-26T12:48:04.899Z,2.08
2018-11-26T12:50:33.428Z,2.00
2018-11-26T12:53:01.765Z,1.90
2018-11-26T12:55:30.130Z,1.80
2018-11-26T12:57:59.020Z,1.85
2018-11-26T13:00:28.469Z,1.75
2018-11-26T13:03:01.010Z,2.10
2018-11-26T13:05:29.253Z,2.00
2018-11-26T13:07:57.526Z,1.77
2018-11-26T13:10:25.772Z,2.20
2018-11-26T13:12:56.278Z,1.50
2018-11-26T13:15:25.771Z,2.10
2018-11-26T13:17:54.010Z,2.13
2018-11-26T13:20:23.952Z,1.90
2018-11-26T13:22:52.719Z,1.90
2018-11-26T13:25:22.031Z,1.98
2018-11-26T13:27:52.447Z,2.10
2018-11-26T13:30:23.706Z,1.80
2018-11-26T13:32:53.225Z,1.80
2018-11-26T13:35:21.474Z,1.98
2018-11-26T13:37:49.748Z,2.10
2018-11-26T13:40:18.558Z,1.90
2018-11-26T13:42:46.915Z,1.70
2018-11-26T13:45:16.626Z,1.50
2018-11-26T13:47:44.879Z,1.20
2018-11-26T13:50:18.406Z,1.30
2018-11-26T13:52:46.736Z,1.70
2018-11-26T13:55:14.968Z,1.50
2018-11-26T13:57:43.211Z,1.60
2018-11-26T14:00:13.498Z,1.40
2018-11-26T14:02:41.725Z,1.32
2018-11-26T14:05:11.219Z,1.60
2018-11-26T14:07:39.450Z,1.55
2018-11-26T14:10:11.189Z,1.25
2018-11-26T14:12:39.605Z,1.40
2018-11-26T14:15:10.723Z,1.35
2018-11-26T14:17:38.950Z,1.95
2018-11-26T14:20:11.606Z,1.35
2018-11-26T14:22:39.840Z,1.15
2018-11-26T14:25:12.400Z,2.00
2018-11-26T14:27:41.411Z,1.57
2018-11-26T14:30:16.029Z,1.47
2018-11-26T14:32:44.266Z,1.42
2018-11-26T14:35:12.520Z,1.40
2018-11-26T14:37:43.068Z,1.50
2018-11-26T14:40:17.851Z,1.62
2018-11-26T14:42:46.095Z,1.40
2018-11-26T14:45:14.634Z,1.80
2018-11-26T14:47:43.628Z,2.85
2018-11-26T14:50:13.030Z,2.17
2018-11-26T14:52:42.281Z,2.10
2018-11-26T14:55:13.011Z,1.92
2018-11-26T14:57:41.333Z,2.50
2018-11-26T15:00:12.678Z,2.05
2018-11-26T15:02:40.937Z,2.75
2018-11-26T15:05:09.387Z,1.72
2018-11-26T15:07:37.676Z,2.08
2018-11-26T15:10:08.958Z,2.70
2018-11-26T15:12:37.320Z,2.17
2018-11-26T15:15:07.910Z,2.20
2018-11-26T15:17:36.186Z,1.90
2018-11-26T15:20:07.290Z,2.10
2018-11-26T15:22:35.549Z,2.35
2018-11-26T15:25:03.894Z,2.08
2018-11-26T15:27:32.322Z,2.37
2018-11-26T15:30:00.607Z,3.15
2018-11-26T15:32:28.890Z,1.95
2018-11-26T15:34:57.243Z,2.27
2018-11-26T15:37:25.599Z,2.70
2018-11-26T15:39:53.914Z,2.30
2018-11-26T15:42:22.190Z,2.17
2018-11-26T15:44:50.545Z,2.80
2018-11-26T15:47:18.812Z,2.65
2018-11-26T15:49:47.089Z,3.00
2018-11-26T15:52:15.834Z,2.95
2018-11-26T15:54:44.515Z,2.83
2018-11-26T15:57:12.893Z,2.55
2018-11-26T15:59:41.139Z,3.22
2018-11-26T16:02:09.374Z,2.75
2018-11-26T16:04:37.611Z,2.62
2018-11-26T16:07:06.433Z,3.10
2018-11-26T16:09:34.903Z,3.10
2018-11-26T16:12:03.178Z,3.17
2018-11-26T16:14:31.450Z,3.12
2018-11-26T16:16:59.684Z,4.22
2018-11-26T16:19:27.937Z,4.25
2018-11-26T16:21:56.166Z,3.90
2018-11-26T16:24:24.426Z,3.47
2018-11-26T16:26:52.672Z,4.00
2018-11-26T16:29:20.898Z,3.98
2018-11-26T16:31:49.150Z,3.30
2018-11-26T16:34:17.395Z,3.80
2018-11-26T16:36:46.026Z,4.30
2018-11-26T16:39:14.383Z,3.95
2018-11-26T16:41:42.603Z,4.12
2018-11-26T16:44:15.034Z,3.12
2018-11-26T16:46:43.283Z,4.08
2018-11-26T16:49:11.648Z,4.08
2018-11-26T16:51:39.994Z,4.17
2018-11-26T16:54:08.199Z,4.37
2018-11-26T16:56:36.501Z,3.98
2018-11-26T16:59:05.116Z,3.67
2018-11-26T17:01:33.439Z,4.37
2018-11-26T17:04:01.666Z,3.75
2018-11-26T17:06:29.907Z,4.22
2018-11-26T17:08:58.281Z,3.33
2018-11-26T17:11:26.504Z,4.20
2018-11-26T17:13:54.793Z,4.65
2018-11-26T17:16:23.016Z,4.37
2018-11-26T17:18:51.310Z,4.80
2018-11-26T17:21:19.567Z,4.12
2018-11-26T17:23:47.847Z,4.85
2018-11-26T17:26:19.145Z,4.97
2018-11-26T17:28:47.379Z,4.58
2018-11-26T17:31:15.609Z,4.50
2018-11-26T17:33:43.811Z,5.42
2018-11-26T17:36:12.061Z,5.12
2018-11-26T17:38:40.310Z,5.45
2018-11-26T17:41:08.607Z,4.78
2018-11-26T17:43:36.828Z,3.72
2018-11-26T17:46:05.943Z,4.10
2018-11-26T17:48:34.174Z,4.42
2018-11-26T17:51:02.398Z,5.42
2018-11-26T17:53:30.672Z,5.03
2018-11-26T17:55:58.983Z,5.42
2018-11-26T17:58:28.725Z,6.40
2018-11-26T18:01:08.060Z,5.55
2018-11-26T18:03:37.632Z,5.70
2018-11-26T18:06:06.058Z,4.75
2018-11-26T18:08:34.388Z,5.67
2018-11-26T18:11:03.182Z,4.83
2018-11-26T18:13:31.588Z,6.03
2018-11-26T18:15:59.906Z,5.10
2018-11-26T18:18:28.417Z,5.10
2018-11-26T18:20:58.929Z,5.00
2018-11-26T18:23:27.232Z,5.95
2018-11-26T18:25:55.619Z,4.35
2018-11-26T18:28:24.137Z,5.55
2018-11-26T18:30:52.986Z,5.40
2018-11-26T18:33:21.257Z,5.80
2018-11-26T18:35:49.754Z,5.20
2018-11-26T18:38:18.170Z,4.90
2018-11-26T18:40:48.097Z,6.15
2018-11-26T18:43:16.366Z,5.60
2018-11-26T18:45:44.656Z,4.80
2018-11-26T18:48:14.060Z,6.35
2018-11-26T18:50:42.303Z,5.80
2018-11-26T18:53:10.567Z,6.10
2018-11-26T18:55:40.408Z,5.35
2018-11-26T18:58:09.938Z,5.50
2018-11-26T19:00:39.936Z,5.58
2018-11-26T19:03:08.296Z,6.40
2018-11-26T19:05:36.695Z,6.15
2018-11-26T19:08:06.043Z,5.47
2018-11-26T19:10:36.233Z,5.60
2018-11-26T19:13:11.057Z,6.50
2018-11-26T19:15:40.743Z,6.75
2018-11-26T19:18:11.551Z,5.70
2018-11-26T19:20:40.186Z,5.53
2018-11-26T19:23:08.925Z,5.83
2018-11-26T19:25:37.543Z,6.78
2018-11-26T19:28:05.872Z,6.42
2018-11-26T19:30:34.156Z,9.65
2018-11-26T19:33:02.572Z,6.95
2018-11-26T19:35:31.188Z,8.00
2018-11-26T19:37:59.493Z,7.35
2018-11-26T19:40:27.818Z,8.20
2018-11-26T19:42:56.114Z,5.85
2018-11-26T19:45:24.803Z,7.42
2018-11-26T19:47:53.498Z,7.08
2018-11-26T19:50:22.136Z,7.60
2018-11-26T19:52:52.038Z,7.12
2018-11-26T19:55:23.595Z,7.47
2018-11-26T19:57:55.537Z,6.67
2018-11-26T20:00:26.843Z,8.93
2018-11-26T20:02:56.743Z,7.10
2018-11-26T20:05:30.259Z,7.20
2018-11-26T20:07:59.687Z,8.48
2018-11-26T20:10:30.111Z,7.10
2018-11-26T20:12:58.960Z,7.62
2018-11-26T20:15:27.263Z,7.65
2018-11-26T20:17:59.037Z,8.18
2018-11-26T20:20:24.720Z,9.23
2018-11-26T20:22:53.825Z,6.95
2018-11-26T20:25:22.967Z,8.20
2018-11-26T20:27:52.284Z,6.78
2018-11-26T20:30:20.934Z,7.42
2018-11-26T20:32:50.871Z,7.20
2018-11-26T20:35:21.350Z,7.75
2018-11-26T20:37:50.455Z,6.92
2018-11-26T20:40:22.144Z,6.45
2018-11-26T20:42:56.758Z,7.40
2018-11-26T20:45:26.010Z,7.42
2018-11-26T20:50:53.064Z,5.90
2018-11-26T20:53:25.050Z,6.65
2018-11-26T20:55:55.322Z,7.55
2018-11-26T20:58:26.628Z,7.58
2018-11-26T21:00:55.656Z,8.63
2018-11-26T21:03:25.311Z,8.98
2018-11-26T21:05:54.357Z,7.35
2018-11-26T21:08:23.867Z,8.93
2018-11-26T21:10:52.254Z,8.23
2018-11-26T21:13:20.530Z,7.75
2018-11-26T21:15:48.757Z,8.80
2018-11-26T21:18:17.033Z,9.70
2018-11-26T21:20:46.729Z,7.97
2018-11-26T21:23:31.413Z,8.98
2018-11-26T21:26:01.029Z,6.60
2018-11-26T21:28:29.261Z,6.90
2018-11-26T21:30:57.503Z,6.35
2018-11-26T21:33:25.756Z,8.28
2018-11-26T21:35:54.030Z,6.87
2018-11-26T21:38:22.307Z,15.08
2018-11-26T21:40:50.557Z,6.70
2018-11-26T21:43:18.820Z,9.38
2018-11-26T21:45:48.869Z,8.08
2018-11-26T21:48:17.085Z,7.30
2018-11-26T21:50:45.301Z,8.35
2018-11-26T21:53:13.533Z,8.18
2018-11-26T21:55:41.745Z,8.33
2018-11-26T21:58:09.961Z,6.72
2018-11-26T22:00:38.956Z,11.43
2018-11-26T22:03:08.214Z,8.28
2018-11-26T22:05:37.554Z,16.12
2018-11-26T22:08:06.233Z,9.65
2018-11-26T22:10:34.617Z,8.80
2018-11-26T22:13:02.878Z,15.53
2018-11-26T22:15:31.073Z,8.78
2018-11-26T22:17:59.311Z,8.03
2018-11-26T22:20:28.930Z,8.05
2018-11-26T22:22:57.212Z,8.13
2018-11-26T22:25:25.476Z,7.83
2018-11-26T22:27:54.283Z,7.28
2018-11-26T22:30:26.542Z,7.80
2018-11-26T22:32:54.790Z,6.85
2018-11-26T22:35:23.032Z,6.55
2018-11-26T22:37:51.302Z,6.78
2018-11-26T22:40:20.534Z,8.58
2018-11-26T22:42:48.878Z,7.00
2018-11-26T22:45:21.005Z,7.10
2018-11-26T22:47:59.638Z,6.97
2018-11-26T22:50:27.914Z,7.47
2018-11-26T22:52:56.191Z,7.20
2018-11-26T22:55:24.406Z,6.22
2018-11-26T22:57:52.775Z,7.50
2018-11-26T23:00:29.030Z,6.95
2018-11-26T23:03:00.292Z,7.22
2018-11-26T23:05:28.554Z,7.03
2018-11-26T23:07:56.770Z,7.55
2018-11-26T23:10:25.014Z,8.23
2018-11-26T23:12:53.251Z,8.03
2018-11-26T23:15:21.507Z,7.60
2018-11-26T23:17:49.873Z,7.05
2018-11-26T23:20:18.999Z,7.80
2018-11-26T23:22:47.232Z,7.80
2018-11-26T23:25:18.839Z,7.40
2018-11-26T23:27:47.066Z,8.20
2018-11-26T23:30:20.406Z,7.72
2018-11-26T23:32:51.950Z,7.03
2018-11-26T23:35:20.195Z,8.10
2018-11-26T23:37:48.400Z,7.72
2018-11-26T23:40:16.640Z,7.08
2018-11-26T23:42:44.893Z,8.00
2018-11-26T23:45:14.348Z,8.35
2018-11-26T23:47:42.563Z,8.78
2018-11-26T23:50:11.769Z,8.03
2018-11-26T23:52:40.335Z,7.35
2018-11-26T23:55:13.156Z,7.37
2018-11-26T23:57:41.439Z,7.40
